Time;durP1;ratioP1;P1;durP2;ratioP2;P2;SDS_P1;SDS_P2;PMS_P1;PMS_P2;Temp;Humidity;BMP_temperature;BMP_pressure;BME280_temperature;BME280_humidity;BME280_pressure;Samples;Min_cycle;Max_cycle;Signal;HPM_P1;HPM_P2
2022/08/23 00:02:24;;;;;;;3.53;3.23;;;;;;;16.94;100.00;96253.34;5030979;28;105415;-59
2022/08/23 00:04:52;;;;;;;3.60;3.30;;;;;;;16.83;100.00;96247.34;5035087;28;103318;-59
2022/08/23 00:07:20;;;;;;;3.43;3.13;;;;;;;17.18;100.00;96251.34;5031956;28;102294;-59
2022/08/23 00:09:47;;;;;;;3.67;3.37;;;;;;;17.37;100.00;96254.75;5013387;28;105352;-59
2022/08/23 00:12:17;;;;;;;6.70;3.87;;;;;;;16.75;100.00;96250.69;5032099;28;102000;-59
2022/08/23 00:14:50;;;;;;;3.77;3.47;;;;;;;16.56;100.00;96254.47;5031612;28;102852;-59
2022/08/23 00:17:17;;;;;;;4.10;3.80;;;;;;;16.46;100.00;96247.34;5031316;28;101966;-59
2022/08/23 00:19:45;;;;;;;4.60;4.20;;;;;;;16.52;100.00;96250.78;5032110;28;101922;-59
2022/08/23 00:22:14;;;;;;;4.67;4.27;;;;;;;16.30;100.00;96248.63;5030667;28;105134;-59
2022/08/23 00:24:42;;;;;;;3.90;3.63;;;;;;;16.21;100.00;96247.69;5033413;28;105314;-59
2022/08/23 00:27:11;;;;;;;3.97;3.60;;;;;;;16.51;100.00;96246.50;5031853;28;102870;-59
2022/08/23 00:29:40;;;;;;;4.30;3.87;;;;;;;16.61;100.00;96243.66;5029708;28;106085;-59
2022/08/23 00:32:12;;;;;;;3.77;3.47;;;;;;;16.84;100.00;96240.88;5030002;27;101926;-59
2022/08/23 00:34:40;;;;;;;4.40;3.33;;;;;;;16.89;100.00;96242.69;5030568;28;104423;-59
2022/08/23 00:37:08;;;;;;;3.80;3.50;;;;;;;16.81;100.00;96243.34;5029498;28;105209;-59
2022/08/23 00:39:36;;;;;;;5.43;4.30;;;;;;;16.65;100.00;96244.66;5030246;28;101822;-59
2022/08/23 00:47:38;;;;;;;4.20;3.80;;;;;;;16.74;100.00;96238.34;5030072;28;103518;-59
2022/08/23 00:47:52;;;;;;;4.73;4.07;;;;;;;16.31;100.00;96231.47;5033382;28;101792;-59
2022/08/23 00:50:25;;;;;;;4.73;4.33;;;;;;;16.38;100.00;96234.56;5029512;28;105858;-59
2022/08/23 00:53:02;;;;;;;4.67;3.83;;;;;;;16.20;100.00;96229.19;5031204;28;101866;-59
2022/08/23 00:55:30;;;;;;;5.43;4.20;;;;;;;16.30;100.00;96224.47;5029833;28;105786;-59
2022/08/23 00:57:58;;;;;;;4.20;3.90;;;;;;;16.54;100.00;96219.06;5029091;28;106248;-59
2022/08/23 01:00:26;;;;;;;7.70;4.13;;;;;;;16.81;100.00;96227.22;5044763;27;101946;-59
2022/08/23 01:02:55;;;;;;;4.37;3.97;;;;;;;16.52;100.00;96223.94;5051630;27;102507;-59
2022/08/23 01:05:26;;;;;;;4.90;4.50;;;;;;;16.34;100.00;96235.41;5050676;27;102734;-59
2022/08/23 01:07:58;;;;;;;4.90;4.43;;;;;;;16.11;100.00;96233.59;5050002;27;101888;-59
2022/08/23 01:10:30;;;;;;;7.60;4.50;;;;;;;16.20;100.00;96231.88;5052603;27;105234;-59
2022/08/23 01:13:07;;;;;;;4.90;4.40;;;;;;;16.15;100.00;96234.63;5051614;27;101785;-59
2022/08/23 01:15:41;;;;;;;4.43;4.03;;;;;;;16.07;100.00;96235.28;5051462;27;102313;-59
2022/08/23 01:18:14;;;;;;;5.23;4.73;;;;;;;16.04;100.00;96236.66;5049148;27;105947;-59
2022/08/23 01:20:48;;;;;;;4.97;4.40;;;;;;;16.29;100.00;96246.25;5051435;27;101721;-59
2022/08/23 01:23:28;;;;;;;4.40;4.00;;;;;;;16.49;100.00;96240.59;5050175;27;105470;-59
2022/08/23 01:25:57;;;;;;;4.60;4.20;;;;;;;16.46;100.00;96235.84;5049045;27;105921;-59
2022/08/23 01:28:25;;;;;;;4.40;4.00;;;;;;;16.74;100.00;96237.56;5049726;27;101995;-59
2022/08/23 01:30:52;;;;;;;4.47;4.03;;;;;;;16.83;100.00;96235.78;5049713;27;105192;-59
2022/08/23 01:33:20;;;;;;;4.83;4.43;;;;;;;16.84;100.00;96229.34;5052381;27;105758;-59
2022/08/23 01:35:52;;;;;;;4.77;4.20;;;;;;;16.87;100.00;96236.78;5049687;27;104679;-59
2022/08/23 01:38:22;;;;;;;6.60;4.30;;;;;;;16.62;100.00;96232.63;5048796;27;105700;-59
2022/08/23 01:40:50;;;;;;;3.67;3.20;;;;;;;16.73;100.00;96225.22;5051130;27;102016;-59
2022/08/23 01:43:20;;;;;;;4.50;4.10;;;;;;;16.66;100.00;96224.78;5048693;27;105176;-59
2022/08/23 01:45:51;;;;;;;5.67;3.93;;;;;;;16.54;100.00;96227.13;5048914;27;105495;-59
2022/08/23 01:48:21;;;;;;;5.73;4.60;;;;;;;16.56;100.00;96233.00;5049589;27;101857;-59
2022/08/23 01:50:50;;;;;;;5.00;4.33;;;;;;;16.62;100.00;96226.47;5049299;27;105341;-59
2022/08/23 01:53:18;;;;;;;4.53;4.13;;;;;;;16.51;100.00;96233.09;5048936;27;105437;-59
2022/08/23 01:55:50;;;;;;;6.43;4.47;;;;;;;16.65;100.00;96237.41;5053167;27;102170;-59
2022/08/23 01:58:20;;;;;;;5.40;5.00;;;;;;;16.67;100.00;96231.75;5048922;27;105140;-59
2022/08/23 02:00:47;;;;;;;7.13;4.73;;;;;;;16.54;100.00;96227.13;5049267;27;101994;-59
2022/08/23 02:03:16;;;;;;;5.47;4.83;;;;;;;16.57;100.00;96229.22;5050508;27;102916;-59
2022/08/23 02:05:44;;;;;;;6.43;4.27;;;;;;;16.56;100.00;96235.69;5048569;27;105476;-59
2022/08/23 02:11:00;;;;;;;6.77;4.37;;;;;;;16.47;100.00;96234.75;5049202;27;105046;-59
2022/08/23 02:13:28;;;;;;;4.23;3.83;;;;;;;16.57;100.00;96237.28;5048346;27;105957;-59
2022/08/23 02:15:58;;;;;;;5.03;4.20;;;;;;;16.49;100.00;96241.41;5048821;27;102075;-59
2022/08/23 02:18:25;;;;;;;4.57;4.17;;;;;;;16.25;100.00;96242.53;5051927;27;105167;-59
2022/08/23 02:20:53;;;;;;;4.43;3.90;;;;;;;16.25;100.00;96246.00;5049249;27;101891;-58
2022/08/23 02:23:23;;;;;;;4.97;4.43;;;;;;;16.20;100.00;96242.59;5048836;27;104990;-59
2022/08/23 02:25:51;;;;;;;4.60;3.77;;;;;;;16.14;100.00;96243.75;5048132;27;106176;-59
2022/08/23 02:28:21;;;;;;;4.30;3.90;;;;;;;15.93;100.00;96245.09;5049116;27;101945;-59
2022/08/23 02:30:48;;;;;;;4.33;4.03;;;;;;;15.95;100.00;96249.09;5049002;27;105639;-58
2022/08/23 02:33:16;;;;;;;4.03;3.63;;;;;;;16.06;100.00;96255.13;5048385;27;105560;-59
2022/08/23 02:35:43;;;;;;;4.53;4.10;;;;;;;15.94;100.00;96254.75;5048804;27;101880;-59
2022/08/23 02:38:12;;;;;;;4.33;3.93;;;;;;;15.96;100.00;96263.31;5051526;27;104982;-59
2022/08/23 02:40:41;;;;;;;6.60;4.10;;;;;;;15.97;100.00;96267.59;5048734;27;101837;-59
2022/08/23 02:43:09;;;;;;;4.20;3.90;;;;;;;15.93;100.00;96274.59;5048986;27;104369;-59
2022/08/23 02:45:39;;;;;;;4.20;3.90;;;;;;;16.01;100.00;96268.59;5048109;27;104990;-59
2022/08/23 02:48:08;;;;;;;4.90;4.50;;;;;;;16.08;100.00;96271.75;5048796;27;101983;-59
2022/08/23 02:50:45;;;;;;;4.70;4.30;;;;;;;16.19;100.00;96281.25;5048547;27;103940;-59
2022/08/23 02:53:13;;;;;;;4.50;4.10;;;;;;;16.08;100.00;96274.44;5047928;27;104221;-59
2022/08/23 02:55:40;;;;;;;6.37;4.27;;;;;;;16.08;100.00;96271.75;5052177;27;101788;-59
2022/08/23 02:58:07;;;;;;;5.20;4.70;;;;;;;16.05;100.00;96267.75;5052113;27;105385;-59
2022/08/23 03:00:34;;;;;;;4.93;4.53;;;;;;;16.08;100.00;96272.53;5054461;27;105757;-59
2022/08/23 03:03:06;;;;;;;4.20;3.90;;;;;;;16.23;100.00;96268.84;5052137;27;105061;-59
2022/08/23 03:05:33;;;;;;;4.50;4.13;;;;;;;16.38;100.00;96269.47;5051280;27;106347;-59
2022/08/23 03:08:01;;;;;;;4.97;4.40;;;;;;;16.43;100.00;96272.09;5052001;27;102070;-59
2022/08/23 03:10:34;;;;;;;4.20;3.90;;;;;;;16.52;100.00;96273.03;5052086;27;103489;-59
2022/08/23 03:13:03;;;;;;;3.40;3.20;;;;;;;16.56;100.00;96268.69;5051444;27;105512;-59
2022/08/23 03:15:30;;;;;;;3.67;3.40;;;;;;;16.54;100.00;96270.88;5053267;27;101812;-59
2022/08/23 03:17:57;;;;;;;3.73;3.43;;;;;;;16.57;100.00;96270.28;5053206;27;102396;-59
2022/08/23 03:20:27;;;;;;;4.53;3.70;;;;;;;16.62;100.00;96267.53;5051033;27;106016;-59
2022/08/23 03:22:54;;;;;;;4.47;4.07;;;;;;;16.64;100.00;96265.38;5055254;27;101808;-59
2022/08/23 03:25:22;;;;;;;4.20;3.80;;;;;;;16.67;100.00;96275.50;5051219;27;105448;-58
2022/08/23 03:28:04;;;;;;;4.30;4.00;;;;;;;16.74;100.00;96275.16;5051474;27;101943;-59
2022/08/23 03:30:33;;;;;;;5.37;3.77;;;;;;;16.65;100.00;96272.31;5051718;27;104837;-59
2022/08/23 03:33:00;;;;;;;4.37;3.97;;;;;;;16.60;100.00;96285.81;5051022;27;105502;-59
2022/08/23 03:35:29;;;;;;;4.27;3.70;;;;;;;16.72;100.00;96280.00;5051402;27;102045;-59
2022/08/23 03:37:56;;;;;;;4.60;4.20;;;;;;;16.49;100.00;96283.56;5051263;27;105695;-59
2022/08/23 03:40:24;;;;;;;4.87;4.47;;;;;;;16.47;100.00;96281.16;5050824;27;105412;-59
2022/08/23 03:42:52;;;;;;;4.87;4.20;;;;;;;16.57;100.00;96290.97;5051523;27;101992;-59
2022/08/23 03:45:22;;;;;;;4.53;4.17;;;;;;;16.53;100.00;96295.31;5054277;27;104457;-59
2022/08/23 03:47:50;;;;;;;4.27;3.87;;;;;;;16.60;100.00;96291.19;5051361;27;101977;-59
2022/08/23 03:50:19;;;;;;;4.23;3.80;;;;;;;16.76;100.00;96297.94;5051138;27;106322;-59
2022/08/23 03:52:49;;;;;;;3.93;3.63;;;;;;;16.73;100.00;96301.19;5048974;27;104177;-59
2022/08/23 03:55:17;;;;;;;3.83;3.47;;;;;;;16.86;100.00;96296.97;5051337;27;101939;-59
2022/08/23 03:57:49;;;;;;;2.77;2.57;;;;;;;17.02;100.00;96309.09;5050781;27;105322;-59
2022/08/23 04:00:17;;;;;;;3.83;3.50;;;;;;;16.98;100.00;96313.44;5050493;27;104931;-59
2022/08/23 04:02:46;;;;;;;4.63;3.67;;;;;;;16.89;100.00;96315.22;5051056;27;101919;-59
2022/08/23 04:05:14;;;;;;;3.53;3.27;;;;;;;16.80;100.00;96319.63;5050496;27;105108;-59
2022/08/23 04:07:52;;;;;;;3.53;3.30;;;;;;;16.85;100.00;96319.56;5052066;27;102612;-59
2022/08/23 04:10:24;;;;;;;3.73;3.43;;;;;;;16.74;100.00;96320.81;5050822;27;104891;-59
2022/08/23 04:12:54;;;;;;;4.87;4.13;;;;;;;16.68;100.00;96324.66;5050523;27;105685;-59
2022/08/23 04:15:23;;;;;;;4.40;4.00;;;;;;;16.62;100.00;96323.91;5051003;27;101950;-59
2022/08/23 04:17:50;;;;;;;4.60;4.03;;;;;;;16.57;100.00;96325.88;5050530;27;104829;-59
2022/08/23 04:20:18;;;;;;;4.00;3.70;;;;;;;16.58;100.00;96322.09;5050282;27;105343;-58
2022/08/23 04:22:55;;;;;;;4.23;3.83;;;;;;;16.42;100.00;96320.69;5050738;27;101818;-59
2022/08/23 04:25:26;;;;;;;3.93;3.63;;;;;;;16.47;100.00;96329.47;5050894;27;105169;-59
2022/08/23 04:27:54;;;;;;;4.07;3.77;;;;;;;16.39;100.00;96326.63;5050186;27;105318;-59
2022/08/23 04:30:22;;;;;;;4.80;4.40;;;;;;;16.21;100.00;96330.06;5054061;27;101698;-59
2022/08/23 04:32:49;;;;;;;5.00;4.53;;;;;;;16.44;100.00;96337.31;5050288;27;104290;-59
2022/08/23 04:35:17;;;;;;;4.77;4.37;;;;;;;16.41;100.00;96337.91;5050407;27;102525;-59
2022/08/23 04:37:44;;;;;;;3.83;3.53;;;;;;;16.54;100.00;96347.91;5050301;27;105264;-59
2022/08/23 04:42:59;;;;;;;3.90;3.60;;;;;;;16.37;100.00;96348.38;5050538;27;101916;-59
2022/08/23 04:45:27;;;;;;;5.20;4.80;;;;;;;16.11;100.00;96357.00;5050548;27;105548;-59
2022/08/23 04:47:55;;;;;;;4.90;4.40;;;;;;;15.92;100.00;96358.84;5049692;27;104053;-59
2022/08/23 04:50:22;;;;;;;5.60;5.10;;;;;;;15.83;100.00;96366.69;5053405;27;102009;-59
2022/08/23 04:53:10;;;;;;;5.13;4.63;;;;;;;15.91;100.00;96373.34;5050380;27;102882;-59
2022/08/23 04:55:46;;;;;;;5.43;4.40;;;;;;;16.00;100.00;96369.72;5050490;27;101952;-59
2022/08/23 04:58:13;;;;;;;4.63;4.33;;;;;;;16.06;100.00;96365.09;5051321;27;102453;-59
2022/08/23 05:00:45;;;;;;;4.83;4.00;;;;;;;16.14;100.00;96372.53;5049414;27;106444;-59
2022/08/23 05:03:12;;;;;;;5.13;4.73;;;;;;;16.27;100.00;96378.03;5050223;27;101863;-59
2022/08/23 05:05:40;;;;;;;4.50;4.13;;;;;;;16.27;100.00;96394.13;5050190;27;105306;-59
2022/08/23 05:08:08;;;;;;;5.30;4.80;;;;;;;16.09;100.00;96391.38;5049596;27;105071;-59
2022/08/23 05:10:35;;;;;;;5.30;4.80;;;;;;;16.29;100.00;96400.00;5051127;27;101921;-59
2022/08/23 05:13:04;;;;;;;5.17;4.67;;;;;;;16.59;100.00;96401.56;5054180;27;103036;-59
2022/08/23 05:15:31;;;;;;;6.70;5.07;;;;;;;16.57;100.00;96403.72;5050042;27;102042;-59
2022/08/23 05:18:04;;;;;;;6.97;4.87;;;;;;;16.15;100.00;96400.97;5048478;27;105252;-59
2022/08/23 05:20:32;;;;;;;5.30;4.80;;;;;;;16.26;100.00;96402.44;5049225;27;105043;-59
2022/08/23 05:23:01;;;;;;;5.50;4.40;;;;;;;16.09;100.00;96402.88;5049834;27;101943;-59
2022/08/23 05:28:16;;;;;;;4.50;4.10;;;;;;;16.27;100.00;96406.72;5048793;27;105357;-59
2022/08/23 05:30:44;;;;;;;4.37;3.77;;;;;;;16.43;100.00;96411.69;5049843;27;102237;-59
2022/08/23 05:33:11;;;;;;;5.80;4.30;;;;;;;16.51;100.00;96411.03;5049651;27;105091;-59
2022/08/23 05:35:39;;;;;;;6.03;4.77;;;;;;;16.13;100.00;96414.66;5052491;27;105476;-59
2022/08/23 05:38:06;;;;;;;4.70;4.30;;;;;;;16.41;100.00;96410.38;5049521;27;105279;-59
2022/08/23 05:40:33;;;;;;;5.97;4.20;;;;;;;16.64;100.00;96410.34;5048770;27;105131;-59
2022/08/23 05:43:08;;;;;;;3.70;3.40;;;;;;;16.48;100.00;96416.19;5050016;27;101877;-59
2022/08/23 05:45:37;;;;;;;4.80;3.90;;;;;;;16.39;100.00;96415.19;5049568;27;106110;-59
2022/08/23 05:48:04;;;;;;;4.40;4.00;;;;;;;16.47;100.00;96426.09;5049138;27;105917;-59
2022/08/23 05:50:42;;;;;;;4.83;3.40;;;;;;;17.13;100.00;96423.38;5049853;27;101940;-58
2022/08/23 05:53:09;;;;;;;4.17;3.67;;;;;;;17.08;100.00;96421.59;5049878;27;104872;-59
2022/08/23 05:55:39;;;;;;;4.10;3.70;;;;;;;17.17;100.00;96421.72;5049282;27;104924;-59
2022/08/23 05:58:25;;;;;;;3.60;3.30;;;;;;;17.38;100.00;96425.72;5053352;27;101830;-59
2022/08/23 06:00:54;;;;;;;3.63;3.23;;;;;;;17.45;100.00;96426.97;5048643;27;104908;-59
2022/08/23 06:03:21;;;;;;;5.10;3.93;;;;;;;17.65;100.00;96423.97;5049552;27;101871;-59
2022/08/23 06:05:48;;;;;;;4.13;3.47;;;;;;;17.71;100.00;96425.47;5049787;27;104591;-59
2022/08/23 06:08:16;;;;;;;5.93;3.43;;;;;;;17.71;100.00;96425.47;5048797;27;105381;-59
2022/08/23 06:10:43;;;;;;;6.57;3.40;;;;;;;17.91;100.00;96429.72;5049353;27;101949;-59
2022/08/23 06:13:20;;;;;;;5.27;3.40;;;;;;;18.23;100.00;96429.69;5049617;27;103666;-58
2022/08/23 06:16:06;;;;;;;4.60;3.40;;;;;;;18.24;100.00;96424.00;5048755;27;105813;-58
2022/08/23 06:22:13;;;;;;;4.67;3.47;;;;;;;18.17;100.00;96429.00;5052005;27;104176;-59
2022/08/23 06:24:42;;;;;;;3.87;3.43;;;;;;;18.50;100.00;96422.47;5049266;27;101936;-59
2022/08/23 06:27:15;;;;;;;5.47;3.60;;;;;;;18.61;100.00;96431.13;5049063;27;105229;-59
2022/08/23 06:29:43;;;;;;;4.10;3.70;;;;;;;19.02;100.00;96431.91;5049787;27;106191;-59
2022/08/23 06:32:30;;;;;;;6.83;3.93;;;;;;;18.85;100.00;96426.34;5050811;27;101779;-59
2022/08/23 06:35:15;;;;;;;5.67;3.77;;;;;;;18.79;100.00;96430.22;5051309;27;102056;-59
2022/08/23 06:37:54;;;;;;;4.10;3.60;;;;;;;19.00;100.00;96434.91;5052095;27;105045;-58
2022/08/23 06:40:39;;;;;;;6.93;3.63;;;;;;;18.70;100.00;96432.03;5050839;27;101754;-59
2022/08/23 06:43:26;;;;;;;5.33;3.87;;;;;;;18.64;100.00;96430.53;5050968;27;102206;-59
2022/08/23 06:46:29;;;;;;;4.13;2.87;;;;;;;18.95;100.00;96426.09;4973750;28;101907;-58
2022/08/23 06:49:00;;;;;;;3.30;3.00;;;;;;;18.37;100.00;96434.00;5025017;28;102434;-59
2022/08/23 06:51:30;;;;;;;3.30;3.00;;;;;;;18.51;100.00;96434.81;5031427;28;106017;-59
2022/08/23 06:54:07;;;;;;;3.77;2.90;;;;;;;18.81;100.00;96436.13;5031900;28;102223;-59
2022/08/23 06:57:50;;;;;;;3.63;3.27;;;;;;;18.37;100.00;96441.31;4987611;28;102358;-59
2022/08/23 07:00:38;;;;;;;5.23;3.30;;;;;;;18.65;100.00;96445.59;4989132;28;103600;-59
2022/08/23 07:03:12;;;;;;;3.77;3.23;;;;;;;18.75;100.00;96440.81;4991177;28;101895;-59
2022/08/23 07:06:06;;;;;;;4.07;3.53;;;;;;;18.37;100.00;96441.31;4988542;28;102013;-59
2022/08/23 07:08:37;;;;;;;3.60;3.30;;;;;;;18.82;100.00;96445.78;4993552;28;105434;-59
2022/08/23 07:11:05;;;;;;;3.50;3.20;;;;;;;18.87;100.00;96434.91;4975368;28;104566;-60
2022/08/23 07:13:33;;;;;;;3.63;3.10;;;;;;;18.96;100.00;96446.59;4970238;28;102870;-62
2022/08/23 07:16:02;;;;;;;3.47;3.17;;;;;;;18.78;100.00;96439.41;4990483;28;101974;-61
2022/08/23 07:18:32;;;;;;;5.27;3.53;;;;;;;19.11;100.00;96440.84;4990926;28;104748;-61
2022/08/23 07:21:01;;;;;;;3.67;3.30;;;;;;;19.74;100.00;96447.00;4989867;28;104251;-61
2022/08/23 07:23:32;;;;;;;3.33;3.13;;;;;;;19.96;100.00;96444.28;4990246;28;102307;-61
2022/08/23 07:26:04;;;;;;;3.57;3.23;;;;;;;19.63;100.00;96456.44;4990710;28;105036;-61
2022/08/23 07:28:31;;;;;;;4.27;2.97;;;;;;;19.69;100.00;96452.50;4988350;28;105298;-61
2022/08/23 07:31:07;;;;;;;3.40;3.10;;;;;;;19.81;100.00;96460.84;4993946;28;101945;-61
2022/08/23 07:33:34;;;;;;;3.10;2.80;;;;;;;19.95;100.00;96458.91;4984176;28;105488;-61
2022/08/23 07:36:15;;;;;;;3.80;2.83;;;;;;;20.35;100.00;96463.28;5031619;28;102014;-61
2022/08/23 07:38:44;;;;;;;4.57;3.00;;;;;;;20.50;100.00;96454.78;5033853;27;103492;-61
2022/08/23 07:41:13;;;;;;;3.53;2.90;;;;;;;20.80;100.00;96459.34;5050065;27;106056;-61
2022/08/23 07:43:41;;;;;;;3.37;3.07;;;;;;;20.96;100.00;96465.97;5053017;27;101847;-62
2022/08/23 07:46:11;;;;;;;4.33;2.80;;;;;;;21.20;100.00;96460.94;5051318;27;105271;-61
2022/08/23 07:48:52;;;;;;;4.10;3.03;;;;;;;21.28;100.00;96454.75;5051120;27;105620;-60
2022/08/23 07:51:23;;;;;;;3.30;2.70;;;;;;;21.16;100.00;96449.97;5042518;27;102021;-61
2022/08/23 07:53:51;;;;;;;3.20;2.90;;;;;;;21.22;100.00;96461.41;5037929;27;105569;-61
2022/08/23 08:00:12;;;;;;;4.33;2.33;;;;;;;21.47;100.00;96476.91;5013431;27;101912;-61
2022/08/23 08:02:53;;;;;;;3.90;2.50;;;;;;;21.29;100.00;96467.94;5038040;27;105300;-61
2022/08/23 08:05:28;;;;;;;3.23;2.20;;;;;;;21.49;100.00;96470.06;5031090;28;101822;-61
2022/08/23 08:07:56;;;;;;;3.00;2.23;;;;;;;21.58;100.00;96465.44;5031130;28;103807;-61
2022/08/23 08:10:25;;;;;;;2.40;2.03;;;;;;;21.74;100.00;96469.28;5030475;28;104435;-61
2022/08/23 08:12:52;;;;;;;2.73;2.00;;;;;;;21.83;100.00;96469.28;5030926;28;101881;-61
2022/08/23 08:15:41;;;;;;;2.33;2.13;;;;;;;22.03;100.00;96468.63;5030954;28;105528;-61
2022/08/23 08:18:12;;;;;;;2.53;2.17;;;;;;;22.28;100.00;96468.59;5053040;27;105351;-61
2022/08/23 08:21:15;;;;;;;3.27;2.10;;;;;;;22.56;100.00;96464.38;5048973;27;103682;-61
2022/08/23 08:24:06;;;;;;;2.20;2.00;;;;;;;22.74;100.00;96473.25;5031320;27;103003;-61
2022/08/23 08:27:25;;;;;;;2.10;2.00;;;;;;;21.68;100.00;96465.16;5030578;28;102138;-62
2022/08/23 08:29:55;;;;;;;2.43;2.27;;;;;;;21.68;100.00;96469.78;5030868;28;104866;-61
2022/08/23 08:32:22;;;;;;;2.73;2.17;;;;;;;22.37;100.00;96471.28;5030052;27;105964;-61
2022/08/23 08:34:49;;;;;;;3.67;2.13;;;;;;;22.49;100.00;96474.13;5032033;28;102224;-61
2022/08/23 08:37:23;;;;;;;3.63;2.50;;;;;;;21.95;100.00;96472.13;5041518;27;105297;-64
2022/08/23 08:39:50;;;;;;;3.67;2.40;;;;;;;21.81;100.00;96485.06;5049985;27;105537;-62
2022/08/23 08:42:35;;;;;;;2.30;2.10;;;;;;;22.42;99.82;96476.53;5054207;27;101924;-61
2022/08/23 08:45:09;;;;;;;3.10;2.30;;;;;;;22.29;100.00;96474.81;5050155;27;105616;-61
2022/08/23 08:47:48;;;;;;;3.37;2.60;;;;;;;22.40;100.00;96476.84;5050709;27;101859;-61
2022/08/23 08:50:22;;;;;;;3.30;2.40;;;;;;;22.35;96.69;96481.66;5050816;27;104249;-61
2022/08/23 08:53:00;;;;;;;3.23;2.57;;;;;;;22.53;100.00;96478.59;5033673;27;104998;-61
2022/08/23 08:56:03;;;;;;;3.97;2.43;;;;;;;22.48;98.27;96478.78;5025684;27;102406;-61
2022/08/23 08:58:44;;;;;;;5.30;2.50;;;;;;;22.27;99.36;96475.13;5029967;28;104375;-61
2022/08/23 09:01:16;;;;;;;4.00;2.33;;;;;;;22.46;96.20;96480.22;5029656;28;105708;-61
2022/08/23 09:03:45;;;;;;;2.73;2.10;;;;;;;23.00;100.00;96479.38;5033736;28;101887;-61
2022/08/23 09:06:49;;;;;;;2.23;2.07;;;;;;;23.12;90.94;96471.34;5029303;28;105521;-61
2022/08/23 09:09:49;;;;;;;2.77;2.33;;;;;;;22.38;94.19;96476.38;5030074;28;102130;-62
2022/08/23 09:12:29;;;;;;;5.60;2.43;;;;;;;22.44;98.76;96477.00;5031017;28;101763;-62
2022/08/23 09:15:16;;;;;;;2.17;2.07;;;;;;;22.96;94.94;96473.81;5030836;27;102760;-62
2022/08/23 09:17:55;;;;;;;2.90;2.33;;;;;;;22.85;91.56;96474.50;5029769;28;102129;-62
2022/08/23 09:20:33;;;;;;;2.73;2.27;;;;;;;22.57;86.30;96470.63;5029863;28;104574;-61
2022/08/23 09:23:09;;;;;;;2.50;2.00;;;;;;;22.90;80.86;96480.53;5039258;27;105698;-60
2022/08/23 09:25:54;;;;;;;3.47;2.20;;;;;;;23.25;62.15;96473.03;5032572;27;101945;-61
2022/08/23 09:28:30;;;;;;;2.60;1.70;;;;;;;23.48;76.36;96466.97;5036710;27;104673;-61
2022/08/23 09:30:59;;;;;;;2.43;1.80;;;;;;;23.08;69.62;96473.09;5048376;27;102269;-61
2022/08/23 09:33:40;;;;;;;3.57;1.87;;;;;;;23.44;83.35;96467.97;5049927;27;105512;-61
2022/08/23 09:36:22;;;;;;;3.80;2.13;;;;;;;23.60;81.15;96468.97;5029731;27;105221;-61
2022/08/23 09:38:57;;;;;;;2.13;1.83;;;;;;;23.80;77.99;96476.31;5029396;28;101858;-61
2022/08/23 09:41:30;;;;;;;2.73;1.73;;;;;;;23.61;83.22;96476.00;5029732;28;103813;-61
2022/08/23 09:44:01;;;;;;;2.00;1.80;;;;;;;23.79;69.83;96470.09;5028904;28;105220;-61
2022/08/23 09:46:34;;;;;;;4.37;1.60;;;;;;;24.26;64.63;96474.16;5029838;27;102090;-61
2022/08/23 09:49:28;;;;;;;2.33;1.50;;;;;;;23.89;60.56;96475.16;5029568;28;104847;-61
2022/08/23 09:52:14;;;;;;;3.00;1.30;;;;;;;24.24;63.20;96471.00;5047241;27;103961;-61
2022/08/23 09:54:43;;;;;;;2.50;1.40;;;;;;;24.56;51.07;96472.09;5029541;28;103890;-61
2022/08/23 09:57:35;;;;;;;2.23;1.10;;;;;;;24.63;48.94;96470.44;5028616;28;105092;-61
2022/08/23 10:00:22;;;;;;;2.07;1.30;;;;;;;24.45;45.79;96481.81;5028908;28;101977;-62
2022/08/23 10:02:56;;;;;;;2.90;1.43;;;;;;;23.94;51.47;96472.25;5028915;27;105878;-62
2022/08/23 10:05:41;;;;;;;1.90;1.27;;;;;;;24.58;55.84;96469.88;5047100;27;105032;-62
2022/08/23 10:08:23;;;;;;;1.67;1.57;;;;;;;24.50;50.68;96463.38;5029218;28;101766;-62
2022/08/23 10:10:53;;;;;;;2.00;1.27;;;;;;;24.12;51.09;96465.53;5029141;28;105003;-62
2022/08/23 10:13:30;;;;;;;2.50;1.20;;;;;;;24.98;50.46;96465.38;5040128;27;105605;-61
2022/08/23 10:16:05;;;;;;;2.73;1.50;;;;;;;24.48;47.12;96470.28;5032364;28;102035;-61
2022/08/23 10:22:11;;;;;;;3.23;1.60;;;;;;;24.75;52.53;96464.22;5028996;28;101902;-61
2022/08/23 10:24:46;;;;;;;2.10;1.37;;;;;;;24.94;56.11;96464.47;5029459;27;104807;-61
2022/08/23 10:30:19;;;;;;;2.00;1.43;;;;;;;25.49;56.63;96451.88;5028988;28;101823;-61
2022/08/23 10:33:01;;;;;;;1.90;1.50;;;;;;;24.29;53.12;96457.19;5044037;27;104880;-61
2022/08/23 10:35:47;;;;;;;1.70;1.40;;;;;;;24.51;56.68;96454.06;5048573;27;105291;-62
2022/08/23 10:38:41;;;;;;;3.37;1.50;;;;;;;24.06;54.00;96466.84;5049078;27;101975;-61
2022/08/23 10:41:32;;;;;;;2.10;1.90;;;;;;;24.67;53.82;96463.19;5046480;27;104893;-61
2022/08/23 10:44:22;;;;;;;1.73;1.43;;;;;;;25.41;53.00;96454.72;5044454;27;101886;-61
2022/08/23 10:47:14;;;;;;;2.13;1.60;;;;;;;25.13;47.63;96448.38;5039761;27;104765;-61
2022/08/23 10:50:05;;;;;;;1.70;1.60;;;;;;;24.99;47.94;96448.72;5028439;28;103694;-61
2022/08/23 10:52:39;;;;;;;3.90;1.63;;;;;;;25.47;52.86;96443.25;5028541;28;101964;-61
2022/08/23 10:58:43;;;;;;;1.50;1.40;;;;;;;26.32;51.31;96449.22;5028077;28;105381;-61
2022/08/23 11:01:15;;;;;;;3.10;1.53;;;;;;;25.46;49.78;96441.69;5030094;27;101880;-61
2022/08/23 11:03:47;;;;;;;4.43;1.80;;;;;;;25.21;48.80;96442.00;5028645;28;105510;-61
2022/08/23 11:06:51;;;;;;;1.87;1.60;;;;;;;24.93;51.94;96450.09;5032467;27;105830;-62
2022/08/23 11:09:34;;;;;;;6.80;2.00;;;;;;;24.40;51.29;96441.25;5048634;27;104566;-61
2022/08/23 11:12:19;;;;;;;2.03;1.83;;;;;;;24.51;50.51;96436.94;5048180;27;105306;-61
2022/08/23 11:15:02;;;;;;;1.60;1.50;;;;;;;25.69;46.72;96436.50;5049404;27;101883;-61
2022/08/23 11:17:35;;;;;;;2.00;1.50;;;;;;;26.11;47.56;96433.06;5051861;27;103044;-62
2022/08/23 11:20:07;;;;;;;2.00;1.70;;;;;;;25.15;47.43;96429.75;5051243;27;105714;-61
2022/08/23 11:23:15;;;;;;;2.50;1.47;;;;;;;25.80;56.55;96429.44;5034633;27;101927;-61
2022/08/23 11:25:47;;;;;;;2.73;1.70;;;;;;;25.68;50.27;96434.91;5031739;28;104836;-61
2022/08/23 11:28:41;;;;;;;1.57;1.40;;;;;;;24.86;48.71;96438.16;5042181;27;104743;-61
2022/08/23 11:31:25;;;;;;;1.87;1.50;;;;;;;25.34;55.63;96435.47;5031384;28;105495;-61
2022/08/23 11:34:01;;;;;;;1.40;1.30;;;;;;;25.43;50.06;96430.66;5030763;28;105959;-61
2022/08/23 11:37:11;;;;;;;1.50;1.40;;;;;;;26.18;54.13;96432.47;5038019;27;101875;-60
2022/08/23 11:40:05;;;;;;;1.60;1.30;;;;;;;27.10;52.84;96437.22;5031067;27;105286;-60
2022/08/23 11:42:48;;;;;;;2.43;1.37;;;;;;;27.07;54.29;96437.13;5051003;27;105046;-60
2022/08/23 11:45:45;;;;;;;3.40;1.43;;;;;;;26.18;46.41;96441.47;5051815;27;102310;-61
2022/08/23 11:48:21;;;;;;;3.20;1.57;;;;;;;26.97;47.47;96441.19;5039054;27;103668;-60
2022/08/23 11:51:27;;;;;;;1.50;1.40;;;;;;;26.55;44.32;96434.69;5032191;28;102659;-60
2022/08/23 11:54:17;;;;;;;1.70;1.30;;;;;;;26.95;43.48;96438.03;4977005;28;101869;-60
2022/08/23 11:57:13;;;;;;;3.33;1.60;;;;;;;26.14;44.12;96437.84;4989857;28;102647;-61
2022/08/23 12:00:03;;;;;;;1.83;1.30;;;;;;;27.45;47.04;96443.53;4991909;28;101787;-61
2022/08/23 12:02:51;;;;;;;3.30;1.50;;;;;;;26.77;48.45;96438.75;4993983;28;102091;-61
2022/08/23 12:05:31;;;;;;;1.73;1.50;;;;;;;27.35;43.15;96435.09;4972389;28;105523;-60
2022/08/23 12:08:30;;;;;;;2.43;1.40;;;;;;;26.38;44.98;96431.47;5004927;28;102074;-61
2022/08/23 12:11:08;;;;;;;1.60;1.30;;;;;;;26.34;43.94;96434.09;4977531;28;102337;-61
2022/08/23 12:13:57;;;;;;;1.77;1.40;;;;;;;26.37;44.43;96427.94;5000852;28;101928;-60
2022/08/23 12:16:49;;;;;;;5.67;1.50;;;;;;;26.20;44.26;96428.25;4990096;28;102168;-62
2022/08/23 12:19:39;;;;;;;1.63;1.53;;;;;;;25.48;45.71;96433.16;5005591;28;103131;-61
2022/08/23 12:22:11;;;;;;;3.50;1.60;;;;;;;26.70;47.83;96425.72;5010249;28;101899;-61
2022/08/23 12:24:43;;;;;;;3.33;1.50;;;;;;;26.58;43.75;96427.72;5028267;27;102678;-61